Time;durP1;ratioP1;P1;durP2;ratioP2;P2;SDS_P1;SDS_P2;PMS_P1;PMS_P2;Temp;Humidity;BMP_temperature;BMP_pressure;BME280_temperature;BME280_humidity;BME280_pressure;Samples;Min_cycle;Max_cycle;Signal;HPM_P1;HPM_P2
2021/11/09 00:02:12;;;;;;;20.10;8.80;;;;;;;7.92;75.32;101130.12;2186871;81;29261;-61
2021/11/09 00:05:18;;;;;;;24.63;8.68;;;;;;;7.91;75.25;101125.23;2185118;81;27689;-62
2021/11/09 00:08:23;;;;;;;17.37;7.37;;;;;;;7.93;75.31;101127.88;2183547;81;29276;-62
2021/11/09 00:11:26;;;;;;;18.70;8.63;;;;;;;7.95;75.30;101126.49;2164321;81;31106;-62
2021/11/09 00:14:28;;;;;;;23.25;8.60;;;;;;;7.96;75.36;101126.44;2165240;81;34163;-62
2021/11/09 00:17:29;;;;;;;20.25;8.20;;;;;;;7.97;75.32;101126.86;2165642;81;29443;-62
2021/11/09 00:20:35;;;;;;;20.55;8.90;;;;;;;8.00;75.33;101128.59;2181569;81;27652;-61
2021/11/09 00:23:36;;;;;;;20.48;8.93;;;;;;;7.97;75.32;101133.53;2187118;81;28646;-63
2021/11/09 00:26:38;;;;;;;16.48;7.80;;;;;;;7.95;75.29;101137.16;2185516;81;31428;-61
2021/11/09 00:29:40;;;;;;;22.87;8.05;;;;;;;7.95;75.48;101139.36;2175557;81;34162;-61
2021/11/09 00:32:43;;;;;;;22.22;9.20;;;;;;;7.95;75.45;101140.70;2168197;81;30533;-62
2021/11/09 00:35:45;;;;;;;19.70;8.10;;;;;;;7.95;75.47;101142.03;2186920;81;27674;-62
2021/11/09 00:38:47;;;;;;;19.62;7.28;;;;;;;7.95;75.49;101146.50;2165940;81;28651;-60
2021/11/09 00:41:50;;;;;;;17.90;6.97;;;;;;;7.96;75.58;101147.78;2164263;82;31936;-62
2021/11/09 00:44:51;;;;;;;19.55;7.28;;;;;;;7.97;75.65;101154.88;2179280;81;32964;-61
2021/11/09 00:47:53;;;;;;;12.58;7.05;;;;;;;7.97;75.71;101153.55;2179073;81;29672;-59
2021/11/09 00:50:55;;;;;;;19.37;8.85;;;;;;;7.97;75.70;101153.55;2160292;81;28167;-60
2021/11/09 00:53:57;;;;;;;23.92;8.23;;;;;;;7.98;75.73;101157.10;2151010;82;29124;-61
2021/11/09 00:56:59;;;;;;;22.02;7.87;;;;;;;7.99;75.75;101157.52;2142545;83;31397;-60
2021/11/09 01:00:00;;;;;;;19.25;7.50;;;;;;;7.98;75.78;101154.44;2141778;83;33028;-60
2021/11/09 01:03:08;;;;;;;20.52;7.47;;;;;;;8.00;75.86;101159.28;2142219;83;28469;-60
2021/11/09 01:06:10;;;;;;;18.00;7.58;;;;;;;7.98;75.87;101160.63;2141881;83;27716;-60
2021/11/09 01:09:13;;;;;;;22.48;7.83;;;;;;;7.96;75.87;101166.46;2141721;83;30001;-60
2021/11/09 01:12:15;;;;;;;17.50;7.87;;;;;;;7.97;75.97;101170.02;2142204;83;32080;-60
2021/11/09 01:15:19;;;;;;;18.65;8.25;;;;;;;7.97;76.01;101175.36;2141787;83;33834;-63
2021/11/09 01:18:32;;;;;;;20.45;8.33;;;;;;;7.97;76.10;101180.22;2142184;83;29787;-61
2021/11/09 01:21:35;;;;;;;18.37;7.30;;;;;;;7.98;76.11;101180.64;2141446;83;27654;-61
2021/11/09 01:24:37;;;;;;;17.60;7.78;;;;;;;8.00;76.19;101183.30;2142178;83;28661;-62
2021/11/09 01:27:39;;;;;;;15.40;7.28;;;;;;;8.01;76.23;101182.38;2141659;83;32252;-61
2021/11/09 01:30:42;;;;;;;21.17;7.80;;;;;;;8.02;76.25;101182.33;2141710;83;34242;-61
2021/11/09 01:33:46;;;;;;;18.10;8.08;;;;;;;8.02;76.25;101185.47;2136134;83;29559;-62
2021/11/09 01:36:48;;;;;;;17.70;7.60;;;;;;;8.04;76.27;101191.18;2142147;83;27720;-63
2021/11/09 01:39:49;;;;;;;21.10;6.83;;;;;;;8.05;76.30;101190.27;2142315;83;29155;-61
2021/11/09 01:42:56;;;;;;;17.40;7.78;;;;;;;8.04;76.25;101191.18;2142082;83;31431;-66
2021/11/09 01:45:59;;;;;;;17.10;7.85;;;;;;;8.01;76.30;101191.72;2142063;83;33610;-63
2021/11/09 01:49:02;;;;;;;18.98;7.87;;;;;;;8.00;76.40;101194.83;2132450;83;30763;-65
2021/11/09 01:52:05;;;;;;;22.52;8.08;;;;;;;8.03;76.44;101205.88;2158713;81;27644;-63
2021/11/09 01:55:11;;;;;;;22.25;8.43;;;;;;;8.02;76.44;101198.34;2183073;81;29512;-65
2021/11/09 01:58:14;;;;;;;16.55;7.65;;;;;;;8.03;76.43;101203.20;2183264;81;31006;-63
2021/11/09 02:01:24;;;;;;;17.92;7.85;;;;;;;8.01;76.45;101204.59;2183275;81;34348;-67
2021/11/09 02:04:26;;;;;;;18.90;8.30;;;;;;;8.02;76.55;101208.16;2155652;81;30537;-67
2021/11/09 02:07:28;;;;;;;19.80;8.30;;;;;;;8.00;76.51;101201.50;2183098;81;27692;-67
2021/11/09 02:10:35;;;;;;;20.90;8.90;;;;;;;8.01;76.54;101202.39;2183585;81;29223;-66
2021/11/09 02:13:37;;;;;;;14.83;7.10;;;;;;;8.00;76.57;101210.84;2183353;81;30990;-66
2021/11/09 02:16:39;;;;;;;16.97;8.00;;;;;;;8.00;76.52;101212.65;2183321;81;33410;-65
2021/11/09 02:19:43;;;;;;;20.72;7.90;;;;;;;8.00;76.54;101216.17;2183377;81;29325;-66
2021/11/09 02:22:46;;;;;;;18.55;8.38;;;;;;;8.01;76.57;101213.93;2183469;81;27634;-66
2021/11/09 02:25:47;;;;;;;14.35;7.55;;;;;;;8.01;76.59;101214.41;2183115;81;29082;-66
2021/11/09 02:28:53;;;;;;;16.82;7.75;;;;;;;8.02;76.69;101217.49;2145506;83;31604;-66
2021/11/09 02:31:54;;;;;;;;;;;;;;;8.05;76.77;101220.95;2179697;81;33692;-65
2021/11/09 02:34:56;;;;;;;21.15;8.58;;;;;;;8.02;76.66;101217.49;2183267;81;30298;-67
2021/11/09 02:37:59;;;;;;;18.73;7.58;;;;;;;8.03;76.86;101218.78;2183292;81;27703;-66
2021/11/09 02:41:02;;;;;;;26.60;9.08;;;;;;;8.05;76.82;101230.30;2183441;81;28646;-63
2021/11/09 02:44:05;;;;;;;20.00;8.23;;;;;;;8.06;76.81;101228.48;2183225;81;31163;-66
2021/11/09 02:47:08;;;;;;;13.25;6.90;;;;;;;8.07;76.76;101232.91;2183079;81;33748;-66
2021/11/09 02:50:12;;;;;;;18.67;7.20;;;;;;;8.09;76.83;101232.90;2182906;81;29556;-65
2021/11/09 02:53:34;;;;;;;18.52;7.70;;;;;;;8.10;76.79;101242.19;2143811;81;27666;-66
2021/11/09 02:56:35;;;;;;;22.70;8.23;;;;;;;8.11;76.76;101231.94;2141636;81;29102;-66
2021/11/09 03:03:05;;;;;;;18.98;7.87;;;;;;;8.10;76.76;101235.98;2152190;82;33825;-65
2021/11/09 03:12:12;;;;;;;26.02;8.03;;;;;;;8.13;76.85;101242.56;2152333;82;28730;-62
2021/11/09 03:15:19;;;;;;;14.45;8.03;;;;;;;8.11;76.85;101242.61;2179046;81;31001;-62
2021/11/09 03:18:24;;;;;;;18.15;7.95;;;;;;;8.13;76.85;101246.13;2163098;82;33799;-65
2021/11/09 03:40:03;;;;;;;22.62;8.83;;;;;;;8.20;76.93;101261.05;2154871;82;29872;-66
2021/11/09 03:44:38;;;;;;;22.05;8.30;;;;;;;8.21;76.77;101276.16;2163605;82;29179;-65
2021/11/09 03:47:41;;;;;;;18.82;8.43;;;;;;;8.19;76.80;101280.66;2163280;82;31461;-64
2021/11/09 03:50:43;;;;;;;19.97;8.97;;;;;;;8.18;76.86;101284.27;2159363;80;34333;-60
2021/11/09 03:53:45;;;;;;;23.47;8.50;;;;;;;8.19;76.92;101285.13;2210995;80;29327;-65
2021/11/09 03:56:55;;;;;;;18.75;8.75;;;;;;;8.23;76.92;101299.27;2173909;81;27618;-63
2021/11/09 04:00:16;;;;;;;22.27;7.85;;;;;;;8.20;76.83;101295.76;2181405;81;28667;-59
2021/11/09 04:03:14;;;;;;;18.90;8.10;;;;;;;8.20;76.87;101295.76;2169617;81;31930;-59
2021/11/09 04:09:27;;;;;;;23.18;9.35;;;;;;;8.21;76.88;101304.66;2175036;80;29477;-60
2021/11/09 04:12:38;;;;;;;20.68;8.20;;;;;;;8.20;76.85;101315.77;2133215;81;28263;-66
2021/11/09 04:15:46;;;;;;;22.27;8.13;;;;;;;8.21;76.82;101317.53;2184881;81;30079;-66
2021/11/09 04:18:44;;;;;;;21.90;8.33;;;;;;;8.19;76.78;101318.02;2182215;80;31401;-65
2021/11/09 04:28:13;;;;;;;19.95;8.80;;;;;;;8.20;76.90;101325.59;2187060;81;28085;-66
2021/11/09 05:10:37;;;;;;;21.35;11.43;;;;;;;8.30;77.09;101366.30;2191341;81;33379;-61
2021/11/09 05:13:39;;;;;;;26.62;10.88;;;;;;;8.30;77.05;101369.84;2188439;81;30689;-62
2021/11/09 05:16:42;;;;;;;21.62;10.63;;;;;;;8.30;77.04;101375.17;2180459;81;27992;-66
2021/11/09 05:19:44;;;;;;;23.57;10.72;;;;;;;8.32;77.02;101377.83;2177430;81;29643;-66
2021/11/09 05:22:45;;;;;;;36.80;11.60;;;;;;;8.32;77.03;101388.51;2158103;82;32091;-68
2021/11/09 05:25:48;;;;;;;25.95;13.28;;;;;;;8.32;77.01;101389.84;2157694;82;34063;-67
2021/11/09 05:28:49;;;;;;;27.67;13.28;;;;;;;8.30;77.00;101392.53;2157986;82;29764;-65
2021/11/09 05:31:57;;;;;;;34.60;16.65;;;;;;;8.29;76.96;101400.11;2158946;81;27689;-67
2021/11/09 05:34:55;;;;;;;28.33;13.40;;;;;;;8.29;77.01;101401.45;2177798;81;28664;-66
2021/11/09 05:37:58;;;;;;;29.45;14.07;;;;;;;8.30;77.10;101397.87;2195840;81;31459;-65
2021/11/09 05:41:07;;;;;;;33.55;15.15;;;;;;;8.32;77.11;101405.39;2195972;81;32979;-65
2021/11/09 05:44:06;;;;;;;24.67;12.35;;;;;;;8.32;77.06;101413.41;2194815;81;29366;-66
2021/11/09 05:47:09;;;;;;;34.18;13.10;;;;;;;8.32;77.08;101414.73;2195096;81;27676;-66
2021/11/09 05:50:11;;;;;;;30.88;12.88;;;;;;;8.33;77.13;101420.50;2170103;81;29173;-66
2021/11/09 05:53:13;;;;;;;27.37;16.40;;;;;;;8.34;77.12;101426.27;2186272;80;31169;-66
2021/11/09 05:56:15;;;;;;;30.27;12.90;;;;;;;8.36;77.12;101436.45;2197568;81;34206;-66
2021/11/09 05:59:17;;;;;;;36.35;13.20;;;;;;;8.39;77.06;101447.52;2185202;81;29369;-66
2021/11/09 06:02:19;;;;;;;28.67;13.13;;;;;;;8.40;77.14;101445.27;2183417;81;28192;-66
2021/11/09 06:05:21;;;;;;;26.23;12.00;;;;;;;8.41;77.10;101451.51;2183697;81;29028;-64
2021/11/09 06:08:24;;;;;;;27.80;13.28;;;;;;;8.43;77.11;101461.70;2183486;81;31186;-65
2021/11/09 06:11:26;;;;;;;26.45;12.85;;;;;;;8.44;77.10;101470.14;2183483;81;33416;-65
2021/11/09 06:14:28;;;;;;;36.70;13.68;;;;;;;8.45;77.17;101475.88;2183424;81;30464;-66
2021/11/09 06:17:29;;;;;;;29.20;13.75;;;;;;;8.45;77.10;101483.88;2183451;81;27590;-66
2021/11/09 06:20:31;;;;;;;30.50;14.38;;;;;;;8.48;77.17;101490.53;2205262;80;28654;-66
2021/11/09 06:23:33;;;;;;;26.82;12.45;;;;;;;8.49;77.10;101504.31;2151412;81;31971;-66
2021/11/09 06:26:35;;;;;;;31.57;17.07;;;;;;;8.52;77.16;101508.25;2186468;81;33620;-66
2021/11/09 06:29:37;;;;;;;22.77;12.98;;;;;;;8.54;77.17;101506.44;2183011;81;30733;-66
2021/11/09 06:32:39;;;;;;;28.07;13.53;;;;;;;8.56;77.15;101511.30;2183317;81;27728;-66
2021/11/09 06:35:41;;;;;;;22.22;12.15;;;;;;;8.57;77.13;101517.06;2183357;81;28655;-66
2021/11/09 06:38:43;;;;;;;30.48;11.73;;;;;;;8.59;77.14;101523.69;2183332;81;31831;-65
2021/11/09 06:41:45;;;;;;;47.45;24.37;;;;;;;8.62;77.15;101529.84;2183180;81;32990;-66
2021/11/09 06:44:47;;;;;;;45.65;25.57;;;;;;;8.63;77.13;101536.94;2183578;81;29763;-66
2021/11/09 06:47:51;;;;;;;30.55;15.83;;;;;;;8.69;77.21;101535.06;2204482;80;27642;-65
2021/11/09 06:50:54;;;;;;;33.42;16.25;;;;;;;8.71;77.11;101546.13;2152541;81;29535;-66
2021/11/09 06:53:56;;;;;;;23.80;12.75;;;;;;;8.76;77.21;101548.72;2189335;80;32404;-65
2021/11/09 06:56:58;;;;;;;32.50;12.33;;;;;;;8.79;77.19;101553.53;2136387;82;33404;-66
2021/11/09 07:00:00;;;;;;;26.52;12.05;;;;;;;8.85;77.09;101567.20;2140388;83;30158;-65
2021/11/09 07:03:02;;;;;;;28.07;13.25;;;;;;;8.88;77.03;101565.81;2183005;81;27699;-66
2021/11/09 07:06:05;;;;;;;28.77;13.22;;;;;;;8.92;76.98;101575.53;2180278;80;28458;-66
2021/11/09 07:09:06;;;;;;;27.60;13.75;;;;;;;8.97;77.07;101584.30;2185094;81;32133;-62
2021/11/09 07:12:09;;;;;;;31.05;12.73;;;;;;;9.04;77.05;101587.71;2184887;81;35135;-66
2021/11/09 07:15:12;;;;;;;35.40;16.12;;;;;;;9.09;76.98;101591.17;2141349;81;29657;-67
2021/11/09 07:18:14;;;;;;;35.00;15.28;;;;;;;9.14;76.89;101598.22;2158399;81;27663;-66
2021/11/09 07:21:17;;;;;;;30.65;13.90;;;;;;;9.16;76.76;101596.39;2183097;81;29911;-67
2021/11/09 07:24:19;;;;;;;31.23;14.47;;;;;;;9.19;76.76;101600.30;2179629;81;32271;-65
2021/11/09 07:27:21;;;;;;;31.25;13.40;;;;;;;9.21;76.67;101599.81;2200324;80;34214;-66
2021/11/09 07:30:26;;;;;;;36.77;13.68;;;;;;;9.26;76.62;101608.62;2157851;81;30678;-66
2021/11/09 07:33:27;;;;;;;31.12;14.07;;;;;;;9.28;76.62;101615.69;2185101;81;27722;-66
2021/11/09 07:36:29;;;;;;;26.33;13.65;;;;;;;9.32;76.50;101619.19;2195228;81;29094;-66
2021/11/09 07:39:31;;;;;;;26.68;13.65;;;;;;;9.34;76.60;101624.05;2195106;81;31095;-66
2021/11/09 07:42:34;;;;;;;33.18;14.87;;;;;;;9.39;76.49;101616.77;2186628;81;34166;-67
2021/11/09 07:45:36;;;;;;;29.50;17.65;;;;;;;9.44;76.45;101619.34;2194558;81;30192;-66
2021/11/09 07:48:38;;;;;;;30.02;15.98;;;;;;;9.43;76.23;101626.97;2191560;81;27625;-66
2021/11/09 07:51:40;;;;;;;31.33;16.42;;;;;;;9.47;76.34;101631.30;2158058;81;29838;-65
2021/11/09 07:54:48;;;;;;;28.38;14.25;;;;;;;9.50;76.12;101641.94;2172587;81;32257;-66
2021/11/09 07:57:53;;;;;;;29.12;15.38;;;;;;;9.52;76.12;101645.46;2178025;81;34241;-63
2021/11/09 08:01:01;;;;;;;25.37;14.63;;;;;;;9.58;76.22;101646.67;2178073;81;30392;-65
2021/11/09 08:04:22;;;;;;;32.40;15.48;;;;;;;9.65;76.14;101649.17;2178590;81;28111;-65
2021/11/09 08:07:21;;;;;;;29.63;14.73;;;;;;;9.76;76.14;101658.28;2182639;81;28864;-65
2021/11/09 08:10:20;;;;;;;28.32;15.00;;;;;;;9.87;76.00;101653.09;2189269;81;32494;-66
2021/11/09 08:13:22;;;;;;;28.50;17.65;;;;;;;9.99;76.04;101652.36;2187526;81;34169;-66
2021/11/09 08:16:24;;;;;;;29.07;14.25;;;;;;;10.13;75.90;101663.59;2187906;81;30731;-65
2021/11/09 08:19:26;;;;;;;22.70;12.70;;;;;;;10.25;75.75;101672.25;2178709;81;27601;-65
2021/11/09 08:22:28;;;;;;;25.80;12.95;;;;;;;10.39;75.58;101676.81;2158028;82;29131;-59
2021/11/09 08:25:31;;;;;;;26.00;12.98;;;;;;;10.49;75.47;101671.61;2158095;82;32231;-59
2021/11/09 08:28:34;;;;;;;22.52;11.03;;;;;;;10.62;75.40;101671.27;2158143;82;33151;-60
2021/11/09 08:31:42;;;;;;;18.73;10.68;;;;;;;10.78;75.40;101681.11;2158030;82;30033;-60
2021/11/09 08:34:42;;;;;;;28.30;12.03;;;;;;;10.88;75.03;101683.94;2158271;81;27784;-59
2021/11/09 08:37:44;;;;;;;25.27;10.63;;;;;;;10.99;74.89;101684.98;2158602;81;28705;-60
2021/11/09 08:40:46;;;;;;;17.90;10.48;;;;;;;11.08;74.63;101691.43;2158242;81;32169;-59
2021/11/09 08:44:05;;;;;;;21.07;11.78;;;;;;;11.16;74.41;101688.52;2158501;82;33826;-59
2021/11/09 08:47:06;;;;;;;11.00;7.35;;;;;;;11.21;74.12;101705.81;2157889;81;30603;-65
2021/11/09 08:50:11;;;;;;;13.93;7.42;;;;;;;11.22;73.58;101694.16;2158385;82;27747;-65
2021/11/09 08:53:20;;;;;;;13.18;7.75;;;;;;;11.25;73.30;101702.13;2161464;81;29099;-65
2021/11/09 09:05:44;;;;;;;17.98;6.87;;;;;;;11.53;72.89;101722.73;2070362;86;27748;-65
2021/11/09 09:08:46;;;;;;;12.55;5.67;;;;;;;11.59;72.83;101723.88;2070056;86;29037;-66
2021/11/09 09:11:50;;;;;;;15.53;7.83;;;;;;;11.70;72.80;101734.28;2069855;86;32031;-66
2021/11/09 09:14:54;;;;;;;21.82;8.28;;;;;;;11.81;72.58;101740.22;2069619;86;34207;-65
2021/11/09 09:17:56;;;;;;;20.43;9.80;;;;;;;11.92;72.60;101734.95;2069982;86;30187;-67
2021/11/09 09:21:07;;;;;;;12.68;7.62;;;;;;;11.97;72.13;101737.90;2069793;86;27752;-65
2021/11/09 09:27:56;;;;;;;13.95;6.67;;;;;;;12.13;71.85;101745.04;2069762;86;32472;-64
2021/11/09 09:57:15;;;;;;;14.40;8.05;;;;;;;12.34;70.33;101769.41;2164413;82;28701;-64
2021/11/09 10:00:18;;;;;;;17.10;8.18;;;;;;;12.31;70.03;101766.38;2163711;82;31494;-65
2021/11/09 10:03:33;;;;;;;14.05;8.60;;;;;;;12.29;70.06;101768.72;2152894;82;33047;-65
2021/11/09 10:06:44;;;;;;;16.17;9.53;;;;;;;12.29;70.28;101772.75;2146532;82;29482;-65
2021/11/09 10:09:47;;;;;;;17.73;8.98;;;;;;;12.31;70.32;101777.13;2146071;82;28279;-65
2021/11/09 10:13:03;;;;;;;13.03;7.83;;;;;;;12.30;69.90;101772.68;2180554;81;28711;-65
2021/11/09 10:16:05;;;;;;;16.77;8.63;;;;;;;12.36;69.85;101772.94;2183608;81;31856;-65
2021/11/09 10:19:09;;;;;;;15.25;8.40;;;;;;;12.37;69.63;101783.23;2183654;81;34149;-64
2021/11/09 10:22:29;;;;;;;21.85;8.95;;;;;;;12.38;69.81;101781.83;2184108;81;29719;-64
2021/11/09 10:25:33;;;;;;;13.88;8.63;;;;;;;12.45;69.40;101788.77;2184152;81;27609;-65
2021/11/09 10:28:36;;;;;;;17.15;7.28;;;;;;;12.48;69.46;101785.09;2178710;81;28652;-64
2021/11/09 10:31:42;;;;;;;16.62;7.70;;;;;;;12.53;69.35;101787.16;2176427;81;31143;-64
2021/11/09 10:34:46;;;;;;;12.60;6.80;;;;;;;12.59;69.18;101791.45;2178010;81;34198;-67
2021/11/09 10:37:51;;;;;;;12.73;8.20;;;;;;;12.64;69.13;101790.84;2167811;81;29380;-64
2021/11/09 10:40:54;;;;;;;9.78;7.37;;;;;;;12.71;68.74;101796.88;2149500;81;27743;-65
2021/11/09 10:44:09;;;;;;;12.88;7.62;;;;;;;12.76;69.08;101793.09;2122726;83;29888;-65
2021/11/09 10:47:22;;;;;;;13.30;7.47;;;;;;;12.84;69.14;101791.48;2190355;81;31025;-67
2021/11/09 10:50:34;;;;;;;15.58;7.20;;;;;;;12.91;68.77;101794.34;2154896;82;32969;-66
2021/11/09 10:53:52;;;;;;;15.15;7.85;;;;;;;12.95;68.50;101788.87;2153092;81;30739;-66
2021/11/09 10:57:08;;;;;;;13.20;7.45;;;;;;;12.98;68.11;101793.69;2187373;81;27662;-66
2021/11/09 11:00:18;;;;;;;14.15;7.55;;;;;;;13.00;68.25;101797.66;2199991;80;29974;-67
2021/11/09 11:06:47;;;;;;;16.73;12.73;;;;;;;12.96;67.93;101798.25;2218399;80;34159;-66
2021/11/09 11:10:02;;;;;;;18.10;8.38;;;;;;;12.95;67.65;101798.28;2174635;81;30466;-66
2021/11/09 11:13:24;;;;;;;10.90;7.58;;;;;;;12.91;67.61;101802.91;2189455;81;27716;-65
2021/11/09 11:16:26;;;;;;;16.27;7.92;;;;;;;12.92;67.43;101797.45;2186010;81;28680;-66
2021/11/09 11:19:33;;;;;;;11.48;7.42;;;;;;;12.91;67.80;101793.00;2183151;81;31821;-66
2021/11/09 11:22:35;;;;;;;13.43;6.65;;;;;;;12.96;67.54;101801.39;2182910;81;34183;-65
2021/11/09 11:25:37;;;;;;;17.42;8.60;;;;;;;12.90;67.10;101798.45;2182892;81;30759;-65
2021/11/09 11:28:43;;;;;;;17.82;8.13;;;;;;;12.91;67.23;101801.55;2183128;81;27731;-65
2021/11/09 11:31:47;;;;;;;13.55;6.70;;;;;;;12.95;67.54;101801.87;2182929;81;28773;-63
2021/11/09 11:34:50;;;;;;;12.73;6.65;;;;;;;12.95;67.23;101799.17;2183227;81;31009;-64
2021/11/09 11:37:53;;;;;;;9.63;6.47;;;;;;;13.00;67.33;101803.91;2182946;81;34176;-64
2021/11/09 11:41:02;;;;;;;13.15;7.55;;;;;;;13.03;66.65;101805.14;2155715;81;29376;-64
2021/11/09 11:44:07;;;;;;;14.00;8.03;;;;;;;13.03;66.94;101797.08;2183351;81;27711;-66
2021/11/09 11:47:16;;;;;;;;;;;;;;;13.06;67.07;101794.28;2186006;81;28632;-66
2021/11/09 11:50:18;;;;;;;11.57;6.97;;;;;;;13.12;66.65;101789.63;2183276;81;31104;-61
2021/11/09 11:53:43;;;;;;;12.40;6.60;;;;;;;13.10;66.39;101788.80;2182770;81;34261;-61
2021/11/09 11:56:53;;;;;;;17.60;8.35;;;;;;;13.16;66.48;101781.83;2183096;81;29324;-62
2021/11/09 11:59:55;;;;;;;10.90;7.62;;;;;;;13.24;66.35;101781.58;2182961;81;27728;-62
2021/11/09 12:03:00;;;;;;;16.07;8.73;;;;;;;13.25;66.04;101788.23;2183145;81;29862;-63
2021/11/09 12:06:19;;;;;;;15.98;6.97;;;;;;;13.34;66.19;101778.94;2182947;81;31964;-62
2021/11/09 12:09:34;;;;;;;16.32;6.87;;;;;;;13.35;65.59;101782.05;2155654;81;33006;-62
2021/11/09 12:12:37;;;;;;;10.88;6.28;;;;;;;13.35;65.28;101782.05;2181966;81;29393;-63
2021/11/09 12:15:53;;;;;;;19.73;12.23;;;;;;;13.35;65.54;101782.05;2183267;81;27718;-64
2021/11/09 12:18:54;;;;;;;16.87;10.68;;;;;;;13.33;65.11;101781.22;2182905;81;29901;-64
2021/11/09 12:22:08;;;;;;;14.63;8.80;;;;;;;13.27;64.80;101782.78;2183220;81;32179;-67
2021/11/09 12:25:16;;;;;;;16.73;9.00;;;;;;;13.20;64.90;101781.68;2183274;81;32961;-64
2021/11/09 12:28:20;;;;;;;14.58;9.35;;;;;;;13.19;64.72;101782.61;2179452;81;29325;-63
2021/11/09 12:31:24;;;;;;;17.00;9.78;;;;;;;13.11;64.23;101775.75;2153388;81;27702;-64
2021/11/09 12:35:04;;;;;;;17.37;8.73;;;;;;;13.02;64.53;101777.83;2184878;81;28728;-65
2021/11/09 12:38:14;;;;;;;15.83;7.65;;;;;;;12.97;64.20;101773.55;2106139;84;31125;-65
2021/11/09 12:41:23;;;;;;;14.95;7.97;;;;;;;12.93;64.23;101770.11;2116932;84;33036;-66
2021/11/09 12:44:35;;;;;;;14.38;7.83;;;;;;;12.89;64.22;101769.34;2087280;85;29399;-66
2021/11/09 12:47:38;;;;;;;12.50;7.47;;;;;;;12.81;64.28;101766.03;2119944;82;27736;-65
2021/11/09 12:50:50;;;;;;;15.35;7.80;;;;;;;12.74;64.18;101765.86;2151218;82;29473;-65
2021/11/09 12:54:03;;;;;;;15.90;7.80;;;;;;;12.66;64.42;101758.51;2151303;82;31055;-65
2021/11/09 12:57:26;;;;;;;13.80;8.55;;;;;;;12.71;64.57;101754.72;2150750;82;33407;-65
2021/11/09 13:00:39;;;;;;;19.67;9.45;;;;;;;12.69;64.15;101758.41;2140973;82;27711;-65
2021/11/09 13:07:44;;;;;;;15.13;8.13;;;;;;;12.72;64.24;101751.58;2070392;85;29497;-65
2021/11/09 13:10:54;;;;;;;11.90;7.62;;;;;;;12.76;64.12;101755.45;2054890;85;31110;-65
2021/11/09 13:14:11;;;;;;;15.10;7.40;;;;;;;12.83;64.20;101756.10;2072548;85;33881;-65
2021/11/09 13:18:02;;;;;;;16.55;8.85;;;;;;;12.88;64.17;101754.59;2070254;85;29401;-65
2021/11/09 13:21:26;;;;;;;20.48;9.68;;;;;;;12.87;64.02;101759.55;2034974;87;27726;-65
2021/11/09 13:24:25;;;;;;;15.65;8.05;;;;;;;12.78;63.60;101758.55;2036246;87;28695;-65
2021/11/09 13:27:43;;;;;;;14.85;8.40;;;;;;;12.69;63.57;101754.38;2036775;87;31221;-65
2021/11/09 13:30:56;;;;;;;18.32;9.85;;;;;;;12.60;63.48;101755.57;2035085;87;33198;-65
2021/11/09 13:34:00;;;;;;;19.62;10.05;;;;;;;12.49;63.53;101758.63;2037016;87;29403;-65
2021/11/09 13:37:03;;;;;;;18.87;11.22;;;;;;;12.45;64.07;101766.38;2037217;87;27712;-65
2021/11/09 13:40:08;;;;;;;21.60;12.70;;;;;;;12.41;63.68;101768.30;2014207;84;29629;-65
2021/11/09 13:43:13;;;;;;;20.05;11.12;;;;;;;12.24;63.98;101767.53;2105237;84;31859;-66
2021/11/09 13:46:31;;;;;;;19.52;10.65;;;;;;;12.15;64.18;101761.09;2105059;84;32965;-66
2021/11/09 13:49:38;;;;;;;16.87;10.20;;;;;;;12.04;64.05;101754.72;2104814;84;29377;-66
2021/11/09 13:52:49;;;;;;;19.62;10.78;;;;;;;11.98;64.48;101762.52;2105288;84;27703;-66
2021/11/09 13:55:52;;;;;;;13.83;9.38;;;;;;;11.94;64.51;101763.98;2131830;82;28694;-66
2021/11/09 13:59:01;;;;;;;14.58;8.63;;;;;;;11.86;64.24;101754.34;2193427;81;31139;-65
2021/11/09 14:02:21;;;;;;;14.95;8.83;;;;;;;11.81;64.33;101754.08;2193485;81;33005;-66
2021/11/09 14:08:59;;;;;;;14.90;8.88;;;;;;;11.66;64.35;101756.33;2159168;81;27716;-66
2021/11/09 14:12:21;;;;;;;16.32;8.68;;;;;;;11.54;64.18;101752.20;2115897;84;29507;-65
2021/11/09 14:15:40;;;;;;;15.80;7.65;;;;;;;11.42;64.42;101751.72;2154069;82;32311;-66
2021/11/09 14:18:30;;;;;;;17.05;6.20;;;;;;;11.28;64.36;101760.16;2118448;84;32369;-65
2021/11/09 14:21:42;;;;;;;9.90;5.65;;;;;;;11.15;64.22;101751.58;2155619;82;29347;-64
2021/11/09 14:25:03;;;;;;;9.68;5.75;;;;;;;11.04;64.49;101759.92;2155742;82;27622;-65
2021/11/09 14:28:32;;;;;;;9.83;6.08;;;;;;;10.95;64.44;101755.69;2119151;84;28734;-66
2021/11/09 14:32:02;;;;;;;8.00;4.60;;;;;;;10.85;64.36;101756.41;2118800;84;28582;-65
2021/11/09 14:35:27;;;;;;;10.32;3.85;;;;;;;10.73;64.37;101757.64;2118811;83;29929;-65
2021/11/09 14:38:31;;;;;;;7.43;4.47;;;;;;;10.45;64.71;101753.45;2108526;84;27793;-65
2021/11/09 14:41:39;;;;;;;9.05;4.80;;;;;;;10.45;64.71;101753.45;2119141;82;27708;-65
2021/11/09 14:45:13;;;;;;;12.37;4.50;;;;;;;10.30;64.56;101754.24;2118289;84;30076;-65
2021/11/09 14:48:31;;;;;;;15.00;4.92;;;;;;;10.19;64.60;101760.30;2191493;81;31758;-66
2021/11/09 14:51:31;;;;;;;11.28;5.35;;;;;;;10.06;64.77;101757.06;2151074;82;34304;-65
2021/11/09 14:54:51;;;;;;;13.38;6.60;;;;;;;9.96;64.93;101762.19;2168393;81;29323;-65
2021/11/09 14:57:54;;;;;;;12.35;5.90;;;;;;;9.85;65.06;101762.00;2153405;82;27735;-64
2021/11/09 15:01:08;;;;;;;19.12;8.33;;;;;;;9.72;65.25;101762.72;2192972;81;29508;-64
2021/11/09 15:04:25;;;;;;;16.82;8.75;;;;;;;9.61;65.41;101762.53;2115137;83;31057;-64
2021/11/09 15:10:43;;;;;;;25.88;8.90;;;;;;;9.34;65.92;101764.45;2137706;82;29325;-65
2021/11/09 15:24:57;;;;;;;17.52;9.40;;;;;;;9.22;66.18;101775.38;2154099;82;27731;-65
2021/11/09 15:30:13;;;;;;;29.25;14.87;;;;;;;8.58;67.62;101789.95;2155571;82;27646;-66
2021/11/09 15:33:35;;;;;;;25.92;14.43;;;;;;;8.46;67.72;101789.66;2116721;81;28647;-65
2021/11/09 15:39:47;;;;;;;26.27;13.80;;;;;;;8.26;68.07;101782.42;2116984;84;34118;-66
2021/11/09 15:42:53;;;;;;;25.43;14.35;;;;;;;8.16;68.49;101794.59;2156522;81;29332;-66
2021/11/09 15:45:56;;;;;;;35.08;14.93;;;;;;;8.08;68.64;101791.61;2117109;84;27605;-66
2021/11/09 15:49:00;;;;;;;29.67;15.88;;;;;;;7.93;68.78;101780.27;2179678;80;28742;-65
2021/11/09 15:52:03;;;;;;;31.60;16.20;;;;;;;7.89;69.00;101792.74;2092852;84;31141;-65
2021/11/09 15:55:08;;;;;;;39.42;16.07;;;;;;;7.82;69.22;101788.84;2155113;82;33025;-65
2021/11/09 15:58:10;;;;;;;32.08;15.80;;;;;;;7.69;69.65;101797.03;2125812;83;29383;-66
2021/11/09 16:01:20;;;;;;;30.15;15.03;;;;;;;7.69;69.65;101797.03;2164713;82;27728;-65
2021/11/09 16:04:37;;;;;;;38.88;18.37;;;;;;;7.63;69.94;101799.77;2152150;82;27756;-66
2021/11/09 16:07:43;;;;;;;33.98;18.25;;;;;;;7.57;70.29;101795.40;2164534;81;31263;-65
2021/11/09 16:10:47;;;;;;;29.77;18.00;;;;;;;7.52;70.22;101794.60;2156099;81;33784;-64
2021/11/09 16:13:49;;;;;;;34.10;18.92;;;;;;;7.46;70.55;101792.00;2153963;82;30266;-67
2021/11/09 16:16:51;;;;;;;38.48;19.37;;;;;;;7.41;70.66;101790.73;2153883;82;27609;-65
2021/11/09 16:19:53;;;;;;;29.30;17.75;;;;;;;7.36;70.81;101801.89;2153935;82;29905;-66
2021/11/09 16:22:58;;;;;;;33.15;18.25;;;;;;;7.32;70.86;101803.28;2198635;80;31834;-66
2021/11/09 16:26:01;;;;;;;38.85;18.77;;;;;;;7.26;70.95;101803.78;2203209;80;33002;-67
2021/11/09 16:29:04;;;;;;;32.45;18.95;;;;;;;7.23;71.35;101805.14;2202806;80;30242;-69
2021/11/09 16:32:09;;;;;;;37.30;19.30;;;;;;;7.18;71.37;101806.09;2202655;80;27662;-67
2021/11/09 16:38:27;;;;;;;37.15;19.92;;;;;;;7.10;71.83;101808.41;2132313;83;31101;-66
2021/11/09 16:41:32;;;;;;;34.65;19.30;;;;;;;7.06;71.83;101814.67;2131370;83;33192;-66
2021/11/09 16:44:31;;;;;;;41.77;21.20;;;;;;;7.03;71.92;101813.36;2131553;83;30518;-66
2021/11/09 16:47:34;;;;;;;30.95;19.25;;;;;;;6.98;72.14;101819.17;2131851;83;27761;-67
2021/11/09 16:53:40;;;;;;;33.83;19.55;;;;;;;6.92;72.09;101829.45;2131985;83;31076;-66